Time;durP1;ratioP1;P1;durP2;ratioP2;P2;SDS_P1;SDS_P2;PMS_P1;PMS_P2;Temp;Humidity;BMP_temperature;BMP_pressure;BME280_temperature;BME280_humidity;BME280_pressure;Samples;Min_cycle;Max_cycle;Signal;HPM_P1;HPM_P2
2022/04/29 00:03:17;;;;;;;6.37;4.30;;;10.10;99.90;;;10.93;100.00;99203.06;5046754;28;20519;-87
2022/04/29 00:06:25;;;;;;;;;;;;;;;;;;;;;
2022/04/29 00:12:19;;;;;;;8.27;4.20;;;10.10;99.90;;;10.84;100.00;99188.31;5031892;28;20490;-86
2022/04/29 00:15:19;;;;;;;6.57;5.03;;;10.10;99.90;;;10.79;100.00;99190.63;5031156;28;20461;-86
2022/04/29 00:17:52;;;;;;;6.70;4.63;;;10.00;99.90;;;10.78;100.00;99188.97;5033411;28;20897;-87
2022/04/29 00:20:24;;;;;;;8.50;4.53;;;9.90;99.90;;;10.76;100.00;99189.13;5042088;28;20457;-88
2022/04/29 00:24:28;;;;;;;7.53;5.10;;;9.80;99.90;;;10.68;100.00;99193.53;5026055;28;21014;-87
2022/04/29 00:27:33;;;;;;;5.80;4.10;;;9.80;99.90;;;10.70;100.00;99192.38;4984873;28;20513;-87
2022/04/29 00:30:10;;;;;;;8.87;5.00;;;9.80;99.90;;;10.72;100.00;99187.81;5036427;28;20836;-87
2022/04/29 00:33:24;;;;;;;13.47;4.63;;;9.70;99.90;;;10.58;100.00;99191.88;5043410;28;20487;-87
2022/04/29 00:36:41;;;;;;;8.93;4.80;;;9.70;99.90;;;10.48;100.00;99188.53;5036147;28;20456;-87
2022/04/29 00:39:32;;;;;;;7.73;4.80;;;9.60;99.90;;;10.48;100.00;99175.47;5030239;28;20957;-88
2022/04/29 00:43:07;;;;;;;;;;;;;;;;;;;;;
2022/04/29 00:45:50;;;;;;;9.30;4.60;;;9.60;99.90;;;10.37;100.00;99185.41;5047060;28;20457;-87
2022/04/29 00:49:09;;;;;;;7.80;4.47;;;9.60;99.90;;;10.32;100.00;99188.50;5037432;28;20482;-87
2022/04/29 00:52:26;;;;;;;5.23;3.77;;;9.50;99.90;;;10.29;100.00;99188.81;4988937;28;20614;-87
2022/04/29 01:02:25;;;;;;;5.23;4.37;;;9.30;99.90;;;10.13;100.00;99175.63;5026135;28;20457;-88
2022/04/29 01:08:33;;;;;;;8.50;4.67;;;9.30;99.90;;;10.08;100.00;99164.81;5039679;28;20496;-87
2022/04/29 01:11:27;;;;;;;8.87;4.67;;;9.30;99.90;;;10.11;100.00;99165.31;5038937;28;20476;-86
2022/04/29 01:14:01;;;;;;;5.77;4.47;;;9.20;99.90;;;10.02;100.00;99161.06;4994725;28;20514;-88
2022/04/29 01:16:58;;;;;;;8.40;4.37;;;9.20;99.90;;;10.02;100.00;99162.84;5043827;28;20452;-86
2022/04/29 01:19:53;;;;;;;7.20;4.93;;;9.20;99.90;;;9.96;100.00;99159.03;5038151;28;20449;-87
2022/04/29 01:22:38;;;;;;;7.43;4.90;;;9.20;99.90;;;9.88;100.00;99152.97;5037302;28;20520;-86
2022/04/29 01:25:38;;;;;;;10.70;5.00;;;9.10;99.90;;;9.91;100.00;99150.03;5041062;28;20460;-87
2022/04/29 01:28:17;;;;;;;5.23;4.50;;;9.00;99.90;;;9.89;100.00;99155.41;5036122;28;20466;-87
2022/04/29 01:31:34;;;;;;;5.87;4.50;;;9.10;99.90;;;9.89;100.00;99154.63;5011391;28;20445;-87
2022/04/29 01:34:22;;;;;;;7.00;4.37;;;9.10;99.90;;;9.90;100.00;99143.16;5046577;28;20513;-87
2022/04/29 01:37:06;;;;;;;7.50;5.30;;;9.10;99.90;;;9.86;100.00;99139.22;5022500;28;20478;-87
2022/04/29 01:40:09;;;;;;;6.30;4.90;;;9.10;99.90;;;9.82;100.00;99143.94;5041350;28;20477;-87
2022/04/29 01:43:17;;;;;;;7.90;5.00;;;9.00;99.90;;;9.82;100.00;99143.13;5034849;28;20457;-87
2022/04/29 01:46:07;;;;;;;7.00;4.67;;;9.00;99.90;;;9.76;100.00;99143.75;5030583;28;20460;-87
2022/04/29 01:49:10;;;;;;;6.77;5.00;;;8.90;99.90;;;9.64;100.00;99145.81;5042487;28;20442;-87
2022/04/29 01:52:01;;;;;;;6.23;4.33;;;8.70;99.90;;;9.68;100.00;99146.31;5038929;28;20455;-87
2022/04/29 01:54:31;;;;;;;8.77;5.37;;;8.70;99.90;;;9.65;100.00;99154.47;5039939;28;20902;-88
2022/04/29 01:57:26;;;;;;;5.37;4.30;;;8.80;99.90;;;9.66;100.00;99149.06;5038646;28;20925;-87
2022/04/29 02:00:26;;;;;;;8.03;5.50;;;8.80;99.90;;;9.68;100.00;99156.78;5033746;28;20536;-86
2022/04/29 02:03:27;;;;;;;6.67;4.67;;;8.90;99.90;;;9.54;100.00;99156.34;5038116;28;20457;-87
2022/04/29 02:07:23;;;;;;;8.23;4.60;;;8.80;99.90;;;9.45;100.00;99153.81;5037531;28;20445;-87
2022/04/29 02:10:26;;;;;;;7.93;4.90;;;8.60;99.90;;;9.47;100.00;99154.50;5038344;28;20511;-87
2022/04/29 02:13:30;;;;;;;11.40;5.30;;;8.60;99.90;;;9.45;100.00;99146.81;5021862;28;21160;-86
2022/04/29 02:16:22;;;;;;;;;;;;;;;;;;;;;
2022/04/29 02:19:31;;;;;;;6.80;4.97;;;8.60;99.90;;;9.37;100.00;99149.34;5028149;28;20975;-88
2022/04/29 02:22:09;;;;;;;10.03;6.00;;;8.60;99.90;;;9.31;100.00;99152.59;5034875;28;20482;-88
2022/04/29 02:27:49;;;;;;;6.43;4.90;;;8.40;99.90;;;9.28;100.00;99145.06;5037678;28;20822;-87
2022/04/29 02:31:00;;;;;;;7.20;4.87;;;8.40;99.90;;;9.22;100.00;99139.63;5038312;28;20496;-86
2022/04/29 02:33:34;;;;;;;7.93;4.50;;;8.40;99.90;;;9.16;100.00;99148.91;5039356;28;20883;-87
2022/04/29 02:36:25;;;;;;;12.20;5.03;;;8.50;99.90;;;9.21;100.00;99145.81;5040562;28;20821;-87
2022/04/29 02:39:19;;;;;;;7.47;4.77;;;8.40;99.90;;;9.22;100.00;99140.44;5025016;28;20465;-86
2022/04/29 02:45:46;;;;;;;6.07;5.10;;;8.20;99.90;;;9.17;100.00;99134.84;5024223;28;21017;-87
2022/04/29 02:49:12;;;;;;;14.60;5.20;;;8.20;99.90;;;9.06;100.00;99127.25;5038461;28;20463;-88
2022/04/29 02:51:46;;;;;;;7.83;4.57;;;8.20;99.90;;;9.02;100.00;99133.78;5038268;28;20818;-87
2022/04/29 02:54:36;;;;;;;5.97;5.30;;;8.20;99.90;;;9.07;100.00;99129.72;4982232;28;20492;-86
2022/04/29 02:57:30;;;;;;;5.47;4.90;;;8.20;99.90;;;9.09;100.00;99134.81;5027727;28;20466;-85
2022/04/29 03:02:59;;;;;;;5.07;3.93;;;8.20;99.90;;;9.08;100.00;99128.75;5038318;28;20540;-85
2022/04/29 03:08:56;;;;;;;8.70;4.63;;;8.20;99.90;;;9.03;100.00;99125.78;4979178;28;20519;-87
2022/04/29 03:12:22;;;;;;;9.93;5.27;;;8.10;99.90;;;9.01;100.00;99122.50;4915914;29;20456;-91
2022/04/29 03:16:02;;;;;;;6.83;4.60;;;8.10;99.90;;;9.03;100.00;99122.34;4874423;29;20635;-84
2022/04/29 03:19:11;;;;;;;9.43;5.50;;;8.10;99.90;;;8.98;100.00;99122.00;4859825;29;20472;-84
2022/04/29 03:22:19;;;;;;;6.10;4.50;;;8.00;99.90;;;8.93;100.00;99122.44;4874124;29;20453;-85
2022/04/29 03:25:52;;;;;;;18.10;8.27;;;8.10;99.90;;;8.86;100.00;99117.97;4882404;29;20472;-86
2022/04/29 03:28:25;;;;;;;7.40;5.20;;;8.20;99.90;;;8.79;100.00;99120.34;4872606;29;20473;-85
2022/04/29 03:34:30;;;;;;;11.60;5.53;;;8.00;99.90;;;8.80;100.00;99114.16;4830337;29;21205;-86
2022/04/29 03:37:02;;;;;;;5.10;4.50;;;7.90;99.90;;;8.78;100.00;99116.09;4897152;28;21129;-86
2022/04/29 03:39:34;;;;;;;9.67;5.40;;;7.90;99.90;;;8.80;100.00;99113.34;5041835;28;20473;-86
2022/04/29 03:42:43;;;;;;;8.67;4.23;;;7.90;99.90;;;8.73;100.00;99117.53;5049109;28;20530;-81
2022/04/29 03:45:13;;;;;;;5.50;4.50;;;7.90;99.90;;;8.66;100.00;99116.47;5040244;28;20473;-84
2022/04/29 03:47:42;;;;;;;8.40;5.20;;;8.00;99.90;;;8.59;100.00;99117.06;5041244;28;20519;-86
2022/04/29 03:50:13;;;;;;;9.70;4.80;;;7.90;99.90;;;8.52;100.00;99116.03;5041362;28;20453;-90
2022/04/29 03:52:50;;;;;;;8.90;4.03;;;7.90;99.90;;;8.50;100.00;99117.94;5043725;28;20457;-86
2022/04/29 03:55:23;;;;;;;5.17;4.60;;;7.80;99.90;;;8.50;100.00;99104.09;5041316;28;20484;-85
2022/04/29 03:57:54;;;;;;;10.07;5.00;;;7.80;99.90;;;8.48;100.00;99108.63;5042650;28;20488;-85
2022/04/29 04:00:29;;;;;;;7.00;4.73;;;7.80;99.90;;;8.49;100.00;99115.50;5043414;28;20437;-86
2022/04/29 04:03:00;;;;;;;6.20;4.77;;;7.70;99.90;;;8.51;100.00;99122.19;5042547;28;20880;-85
2022/04/29 04:05:30;;;;;;;10.50;5.00;;;7.70;99.90;;;8.53;100.00;99122.88;5042962;28;20528;-85
2022/04/29 04:08:00;;;;;;;6.53;4.27;;;7.70;99.90;;;8.52;100.00;99121.22;5042839;28;20858;-85
2022/04/29 04:10:33;;;;;;;6.20;4.37;;;7.70;99.90;;;8.55;100.00;99120.94;5044612;28;20454;-85
2022/04/29 04:13:03;;;;;;;16.77;9.77;;;7.60;99.90;;;8.53;100.00;99122.06;5046940;28;20449;-86
2022/04/29 04:15:33;;;;;;;10.47;5.57;;;7.70;99.90;;;8.48;100.00;99127.69;5042190;28;20486;-86
2022/04/29 04:18:03;;;;;;;5.57;4.63;;;7.70;99.90;;;8.46;100.00;99132.25;5039953;28;20511;-87
2022/04/29 04:20:34;;;;;;;10.77;4.67;;;7.70;99.90;;;8.42;100.00;99130.06;5042788;28;20465;-86
2022/04/29 04:23:07;;;;;;;9.63;5.00;;;7.70;99.90;;;8.39;100.00;99128.59;5042501;28;21005;-87
2022/04/29 04:25:40;;;;;;;7.53;5.40;;;7.60;99.90;;;8.35;100.00;99137.66;5045180;28;20446;-87
2022/04/29 04:28:13;;;;;;;5.53;4.70;;;7.60;99.90;;;8.34;100.00;99136.00;5043803;28;20449;-87
2022/04/29 04:30:43;;;;;;;6.73;4.50;;;7.50;99.90;;;8.28;100.00;99139.22;5042339;28;20466;-88
2022/04/29 04:33:14;;;;;;;7.43;5.20;;;7.60;99.90;;;8.17;100.00;99126.34;5045409;28;20454;-87
2022/04/29 04:35:44;;;;;;;7.47;5.53;;;7.60;99.90;;;8.19;100.00;99129.59;5041867;28;20452;-88
2022/04/29 04:38:15;;;;;;;9.97;5.27;;;7.50;99.90;;;8.17;100.00;99141.16;5040287;28;20512;-87
2022/04/29 04:40:47;;;;;;;7.80;4.77;;;7.40;99.90;;;8.17;100.00;99141.97;5043832;28;20477;-87
2022/04/29 04:43:21;;;;;;;7.03;4.90;;;7.50;99.90;;;8.17;100.00;99135.94;5042530;28;20459;-89
2022/04/29 04:45:53;;;;;;;6.30;4.50;;;7.50;99.90;;;8.15;100.00;99135.28;5046266;28;20449;-88
2022/04/29 04:48:24;;;;;;;6.63;4.20;;;7.40;99.90;;;8.21;100.00;99132.91;5045492;28;20446;-87
2022/04/29 04:50:58;;;;;;;10.50;5.13;;;7.40;99.90;;;8.22;100.00;99133.72;5044700;28;20437;-87
2022/04/29 04:53:29;;;;;;;8.20;5.03;;;7.40;99.90;;;8.21;100.00;99138.13;5043188;28;20835;-87
2022/04/29 04:56:01;;;;;;;6.90;5.50;;;7.30;99.90;;;8.20;100.00;99139.06;5041138;28;20476;-87
2022/04/29 04:58:33;;;;;;;7.33;4.90;;;7.30;99.90;;;8.22;100.00;99133.72;5039914;28;20864;-87
2022/04/29 05:01:05;;;;;;;11.87;5.60;;;7.30;99.90;;;8.19;100.00;99137.44;5043450;28;20437;-87
2022/04/29 05:03:35;;;;;;;6.40;5.17;;;7.40;99.90;;;8.21;100.00;99138.13;5045657;28;20442;-88
2022/04/29 05:06:06;;;;;;;10.13;5.20;;;7.40;99.90;;;8.30;100.00;99137.25;5044102;28;20458;-87
2022/04/29 05:08:37;;;;;;;7.10;4.43;;;7.50;99.90;;;8.33;100.00;99141.38;5041991;28;20452;-88
2022/04/29 05:11:09;;;;;;;15.60;6.17;;;7.40;99.90;;;8.36;100.00;99134.09;5044317;28;20488;-87
2022/04/29 05:13:39;;;;;;;10.43;5.63;;;7.40;99.90;;;8.43;100.00;99137.75;5041637;28;20461;-88
2022/04/29 05:16:10;;;;;;;8.73;5.90;;;7.50;99.90;;;8.48;100.00;99139.91;5043311;28;20470;-87
2022/04/29 05:18:42;;;;;;;9.23;5.77;;;7.60;99.90;;;8.53;100.00;99140.31;5042798;28;21152;-88
2022/04/29 05:21:12;;;;;;;9.47;6.40;;;7.60;99.90;;;8.58;100.00;99141.50;5043354;28;20470;-87
2022/04/29 05:23:43;;;;;;;6.97;5.33;;;7.60;99.90;;;8.65;100.00;99151.31;5042159;28;20548;-88
2022/04/29 05:26:15;;;;;;;18.33;6.20;;;7.70;99.90;;;8.67;100.00;99152.00;5044980;28;20450;-87
2022/04/29 05:28:47;;;;;;;8.20;5.37;;;7.80;99.90;;;8.72;100.00;99141.94;5041212;28;20442;-87
2022/04/29 05:31:18;;;;;;;8.20;5.57;;;7.80;99.90;;;8.75;100.00;99149.47;5041891;28;20521;-88
2022/04/29 05:33:49;;;;;;;11.67;5.20;;;7.80;99.90;;;8.78;100.00;99146.59;5045004;28;20442;-88
2022/04/29 05:36:20;;;;;;;9.27;6.20;;;7.80;99.90;;;8.79;100.00;99143.00;5042074;28;20472;-90
2022/04/29 05:44:35;;;;;;;7.47;5.47;;;8.00;99.90;;;8.86;100.00;99138.81;5047275;28;20834;-89
2022/04/29 05:47:08;;;;;;;7.20;5.37;;;8.00;99.90;;;8.89;100.00;99143.72;5052007;28;20798;-89
2022/04/29 05:49:39;;;;;;;9.67;6.27;;;8.10;99.90;;;8.93;100.00;99142.47;5048031;28;20433;-89
2022/04/29 05:52:15;;;;;;;7.00;5.40;;;8.10;99.90;;;8.99;100.00;99134.03;5045921;28;20501;-90
2022/04/29 05:54:46;;;;;;;8.73;5.73;;;8.10;99.90;;;9.01;100.00;99138.16;5042688;28;20501;-89
2022/04/29 05:57:18;;;;;;;11.43;6.53;;;8.10;99.90;;;9.05;100.00;99139.50;5043269;28;20458;-89
2022/04/29 05:59:49;;;;;;;7.97;5.37;;;8.20;99.90;;;9.09;100.00;99140.03;5048528;28;20456;-89
2022/04/29 06:02:21;;;;;;;7.77;5.50;;;8.10;99.90;;;9.15;100.00;99139.41;5046281;28;20523;-89
2022/04/29 06:04:52;;;;;;;10.43;6.30;;;8.20;99.90;;;9.20;100.00;99137.16;5041281;28;20456;-89
2022/04/29 06:07:24;;;;;;;11.10;6.43;;;8.20;99.90;;;9.25;100.00;99141.94;5044734;28;21020;-88
2022/04/29 06:09:54;;;;;;;12.73;5.70;;;8.30;99.90;;;9.26;100.00;99136.56;5042747;28;20438;-88
2022/04/29 06:12:26;;;;;;;8.90;5.67;;;8.40;99.90;;;9.32;100.00;99135.97;5044744;28;20446;-88
2022/04/29 06:14:56;;;;;;;9.43;6.07;;;8.40;99.90;;;9.36;100.00;99137.31;5041854;28;20500;-89
2022/04/29 06:17:27;;;;;;;13.40;5.47;;;8.40;99.90;;;9.40;100.00;99138.63;5039808;28;20533;-89
2022/04/29 06:19:59;;;;;;;9.50;5.67;;;8.50;99.90;;;9.47;100.00;99137.06;5044048;28;20453;-88
2022/04/29 06:22:29;;;;;;;10.97;5.57;;;8.50;99.90;;;9.53;100.00;99133.81;5037071;28;20553;-89
2022/04/29 06:24:58;;;;;;;9.33;6.80;;;8.60;99.90;;;9.57;100.00;99126.50;5045869;28;20449;-89
2022/04/29 06:27:41;;;;;;;11.37;6.00;;;8.60;99.90;;;9.64;100.00;99126.72;5041628;28;20452;-89
2022/04/29 06:30:15;;;;;;;11.80;6.30;;;8.80;99.90;;;9.70;100.00;99128.69;5042498;28;20451;-88
2022/04/29 06:33:10;;;;;;;9.00;5.80;;;8.80;99.90;;;9.75;100.00;99121.22;5040472;28;20473;-88
2022/04/29 06:35:42;;;;;;;12.90;6.40;;;8.80;99.90;;;9.79;100.00;99119.94;5040003;28;20497;-89
2022/04/29 06:38:14;;;;;;;12.17;5.90;;;8.80;99.90;;;9.81;100.00;99118.81;5041430;28;20446;-88
2022/04/29 06:40:44;;;;;;;8.20;5.50;;;8.90;99.90;;;9.87;100.00;99120.78;5042091;28;20485;-88
2022/04/29 06:43:15;;;;;;;11.93;5.70;;;9.00;99.90;;;9.93;100.00;99129.78;5046371;28;20454;-88
2022/04/29 06:45:47;;;;;;;7.77;5.40;;;9.10;99.90;;;9.96;100.00;99125.06;5043305;28;20445;-89
2022/04/29 06:48:20;;;;;;;8.20;6.07;;;9.10;99.90;;;10.01;100.00;99125.44;5045622;28;20449;-89
2022/04/29 06:50:53;;;;;;;7.70;5.67;;;9.20;99.90;;;10.08;100.00;99128.22;5050630;28;20470;-88
2022/04/29 06:53:22;;;;;;;11.50;6.17;;;9.20;99.90;;;10.13;100.00;99129.38;5048170;28;20472;-88
2022/04/29 06:55:57;;;;;;;7.97;6.33;;;9.30;99.90;;;10.20;100.00;99128.81;5047602;28;20839;-89
2022/04/29 06:58:28;;;;;;;13.77;6.80;;;9.30;99.90;;;10.23;100.00;99124.09;5045929;28;20802;-89
2022/04/29 07:00:59;;;;;;;9.30;5.80;;;9.40;99.90;;;10.28;100.00;99129.66;5044946;28;20531;-89
2022/04/29 07:03:29;;;;;;;15.03;6.53;;;9.40;99.90;;;10.33;100.00;99122.16;5044924;28;20439;-89
2022/04/29 07:06:04;;;;;;;17.73;6.70;;;9.50;99.90;;;10.38;100.00;99130.31;5048049;28;20443;-88
2022/04/29 07:08:34;;;;;;;9.57;5.80;;;9.50;99.90;;;10.42;100.00;99126.41;5048155;28;20461;-89
2022/04/29 07:11:03;;;;;;;7.63;5.73;;;9.50;99.90;;;10.46;100.00;99124.31;5048547;28;20453;-89
2022/04/29 07:13:36;;;;;;;10.33;5.20;;;9.60;99.90;;;10.51;100.00;99125.50;5047439;28;20891;-88
2022/04/29 07:16:06;;;;;;;8.20;6.00;;;9.70;99.90;;;10.56;100.00;99127.59;5043769;28;20595;-88
2022/04/29 07:18:37;;;;;;;9.27;5.97;;;9.70;99.90;;;10.60;100.00;99127.13;5047689;28;20444;-89
2022/04/29 07:21:07;;;;;;;8.40;5.90;;;9.80;99.90;;;10.65;100.00;99129.28;5042611;28;20453;-88
2022/04/29 07:23:37;;;;;;;8.93;6.27;;;9.80;99.90;;;10.71;100.00;99130.41;5045609;28;20861;-89
2022/04/29 07:26:10;;;;;;;16.13;6.77;;;9.80;99.90;;;10.78;100.00;99131.41;5046672;28;20456;-89
2022/04/29 07:28:42;;;;;;;11.30;6.50;;;9.90;99.90;;;10.87;100.00;99126.03;5046031;28;20885;-89
2022/04/29 07:31:11;;;;;;;16.93;6.53;;;10.00;99.90;;;10.93;100.00;99129.81;5044449;28;20437;-89
2022/04/29 07:33:41;;;;;;;8.23;6.33;;;10.20;99.90;;;11.01;100.00;99125.38;5045007;28;20537;-89
2022/04/29 07:41:47;;;;;;;8.20;6.00;;;10.40;99.90;;;11.30;100.00;99121.44;5042561;28;20508;-88
2022/04/29 07:44:19;;;;;;;9.90;5.53;;;10.50;99.90;;;11.38;100.00;99124.06;5044165;28;21020;-88
2022/04/29 07:46:50;;;;;;;12.60;6.43;;;10.60;99.90;;;11.48;100.00;99117.69;5043895;28;20451;-89
2022/04/29 07:49:21;;;;;;;9.47;5.53;;;10.70;99.90;;;11.58;100.00;99112.25;5046671;28;20449;-88
2022/04/29 07:51:51;;;;;;;7.30;5.13;;;10.90;99.90;;;11.69;100.00;99117.16;5043827;28;20474;-89
2022/04/29 07:54:23;;;;;;;7.73;5.57;;;10.90;99.90;;;11.80;100.00;99108.16;5047441;28;20465;-88
2022/04/29 07:56:53;;;;;;;7.13;5.23;;;11.10;99.90;;;11.91;100.00;99110.38;5046187;28;20477;-89
2022/04/29 07:59:25;;;;;;;8.17;5.20;;;11.20;99.90;;;12.03;100.00;99109.03;5044173;28;20446;-88
2022/04/29 08:01:55;;;;;;;6.00;5.17;;;11.30;99.90;;;12.17;100.00;99110.13;5046896;28;20448;-88
2022/04/29 08:04:24;;;;;;;7.53;5.63;;;11.40;99.90;;;12.27;100.00;99110.72;5045483;28;20429;-89
2022/04/29 08:06:53;;;;;;;6.77;4.93;;;11.50;99.90;;;12.37;100.00;99108.72;5044853;28;20475;-88
2022/04/29 08:09:32;;;;;;;7.33;6.00;;;11.60;99.90;;;12.48;100.00;99109.16;5048501;28;20457;-88
2022/04/29 08:12:10;;;;;;;7.90;5.63;;;11.80;99.90;;;12.57;100.00;99109.91;5044451;28;20449;-89
2022/04/29 08:14:41;;;;;;;7.90;5.63;;;11.90;99.90;;;12.67;100.00;99113.13;5044439;28;20441;-89
2022/04/29 08:17:19;;;;;;;10.10;5.83;;;12.00;99.90;;;12.78;100.00;99109.28;5043224;28;20568;-88
2022/04/29 08:19:49;;;;;;;11.87;6.13;;;12.10;99.90;;;12.86;100.00;99112.69;5045757;28;20518;-88
2022/04/29 08:22:20;;;;;;;10.43;5.03;;;12.30;99.90;;;12.97;100.00;99103.56;5051753;28;20446;-88
2022/04/29 08:24:50;;;;;;;11.03;5.73;;;12.30;99.90;;;13.05;100.00;99108.78;5046639;28;20503;-89
2022/04/29 08:27:21;;;;;;;11.70;5.73;;;12.50;99.90;;;13.14;100.00;99104.28;5047520;28;20437;-89
2022/04/29 08:30:01;;;;;;;8.33;5.20;;;12.60;99.90;;;13.21;97.93;99102.59;5046398;28;20468;-89
2022/04/29 08:32:39;;;;;;;14.50;5.57;;;12.70;99.90;;;13.29;97.06;99097.28;5047396;28;20467;-89
2022/04/29 08:35:11;;;;;;;9.27;5.10;;;12.80;99.90;;;13.41;96.62;99096.66;5043491;28;20911;-88
2022/04/29 08:37:40;;;;;;;8.10;4.83;;;12.90;99.80;;;13.52;96.16;99098.84;5042759;28;20441;-88
2022/04/29 08:40:13;;;;;;;8.10;4.90;;;13.00;99.50;;;13.63;94.87;99094.13;5043151;28;20453;-89
2022/04/29 08:42:44;;;;;;;6.60;5.00;;;13.20;99.50;;;13.73;94.61;99094.69;5040407;28;20446;-88
2022/04/29 08:45:18;;;;;;;11.50;4.87;;;13.20;99.40;;;13.83;94.42;99095.22;5045058;28;20457;-88
2022/04/29 08:47:49;;;;;;;9.87;5.43;;;13.20;99.10;;;13.91;92.73;99093.34;5042044;28;20446;-88
2022/04/29 08:50:21;;;;;;;6.90;4.77;;;13.40;99.00;;;14.01;93.17;99085.97;5045619;28;20528;-89
2022/04/29 08:52:50;;;;;;;9.03;4.70;;;13.40;98.50;;;14.13;92.59;99081.03;5039765;28;20955;-87
2022/04/29 09:01:02;;;;;;;7.03;4.60;;;13.80;99.10;;;14.42;89.74;99086.28;5044905;28;20537;-89
2022/04/29 09:03:32;;;;;;;6.40;4.10;;;13.90;98.50;;;14.51;89.70;99077.25;5041012;28;20462;-88
2022/04/29 09:06:04;;;;;;;6.73;4.80;;;14.00;98.00;;;14.58;88.24;99079.97;5043551;28;21007;-87
2022/04/29 09:08:42;;;;;;;11.70;4.90;;;14.00;97.40;;;14.66;86.91;99079.03;5040731;28;20458;-88
2022/04/29 09:11:23;;;;;;;12.97;4.50;;;14.10;97.70;;;14.77;87.39;99079.34;5040819;28;20437;-88
2022/04/29 09:13:56;;;;;;;13.03;4.20;;;14.10;97.90;;;14.85;85.09;99079.25;5044618;28;20452;-87
2022/04/29 09:16:28;;;;;;;9.73;4.67;;;14.30;97.60;;;14.93;84.29;99073.00;5042463;28;20474;-89
2022/04/29 09:18:59;;;;;;;6.47;4.97;;;14.40;97.30;;;15.01;83.19;99064.97;5046865;28;20452;-88
2022/04/29 09:21:31;;;;;;;11.93;5.27;;;14.50;97.20;;;15.03;81.15;99073.50;5040615;28;20536;-89
2022/04/29 09:24:10;;;;;;;11.53;4.57;;;14.50;96.30;;;15.08;81.09;99071.94;5041180;28;20504;-89
2022/04/29 09:26:40;;;;;;;6.53;4.17;;;14.60;96.40;;;15.17;80.39;99074.44;5043549;28;20444;-89
2022/04/29 09:29:15;;;;;;;6.07;4.60;;;14.60;96.30;;;15.22;79.52;99062.31;5045807;28;20445;-89
2022/04/29 09:31:54;;;;;;;6.57;4.90;;;14.70;96.20;;;15.29;78.72;99067.63;5044548;28;20514;-88
2022/04/29 09:34:47;;;;;;;8.87;4.70;;;14.80;95.40;;;15.36;78.11;99057.94;5044152;28;20446;-89
2022/04/29 09:37:18;;;;;;;8.50;5.07;;;14.80;95.70;;;15.39;77.56;99061.03;5044792;28;20532;-89
2022/04/29 09:39:58;;;;;;;10.47;5.33;;;14.90;95.60;;;15.44;75.68;99050.72;5040634;28;20446;-88
2022/04/29 09:42:38;;;;;;;16.33;5.07;;;15.00;95.00;;;15.49;73.26;99053.63;5043389;28;20802;-88
2022/04/29 09:45:15;;;;;;;11.13;5.73;;;15.00;93.40;;;15.56;71.08;99054.47;5039735;28;20511;-89
2022/04/29 09:47:53;;;;;;;7.30;5.17;;;15.10;93.80;;;15.64;68.68;99053.50;5046508;28;20827;-89
2022/04/29 09:50:23;;;;;;;11.87;5.60;;;15.10;93.30;;;15.72;67.09;99055.19;5047404;28;20916;-89
2022/04/29 09:52:53;;;;;;;10.40;5.70;;;15.20;92.40;;;15.80;65.61;99049.72;5045681;28;20441;-88
2022/04/29 09:55:23;;;;;;;12.30;5.60;;;15.30;92.50;;;15.85;62.47;99044.69;5048237;28;20458;-89
2022/04/29 09:57:56;;;;;;;6.87;4.70;;;15.40;91.40;;;15.95;63.75;99038.03;5045061;28;20496;-88
2022/04/29 10:00:27;;;;;;;8.00;5.17;;;15.40;92.20;;;16.07;64.06;99031.16;5039802;28;20449;-88
2022/04/29 10:03:03;;;;;;;7.00;4.70;;;15.60;92.40;;;16.18;63.33;99037.69;5041811;28;20454;-88
2022/04/29 10:05:36;;;;;;;10.87;5.60;;;15.70;92.00;;;16.27;60.56;99028.63;5042961;28;20441;-88
2022/04/29 10:08:09;;;;;;;8.87;5.43;;;15.90;91.10;;;16.34;57.48;99040.00;5041307;28;20452;-88
2022/04/29 10:10:40;;;;;;;9.17;5.50;;;16.00;89.30;;;16.44;57.55;99032.50;5038622;28;20945;-88
2022/04/29 10:13:11;;;;;;;6.93;5.00;;;16.10;90.20;;;16.55;58.13;99031.97;5037978;28;20454;-88
2022/04/29 10:15:41;;;;;;;9.80;4.93;;;16.10;90.00;;;16.60;56.75;99021.59;5043617;28;20493;-88
2022/04/29 10:21:17;;;;;;;10.10;5.30;;;16.10;90.10;;;16.74;56.54;99006.56;5037777;28;20516;-88
2022/04/29 10:23:49;;;;;;;9.40;5.70;;;16.30;90.00;;;16.85;56.09;99019.19;5044233;28;20536;-88
2022/04/29 10:26:20;;;;;;;10.60;6.37;;;16.40;89.50;;;16.94;55.25;99019.78;5040110;28;20465;-88
2022/04/29 10:28:51;;;;;;;5.63;4.20;;;16.50;88.60;;;17.00;53.72;99011.06;5045939;28;20935;-88
2022/04/29 10:31:23;;;;;;;6.90;4.43;;;16.60;87.10;;;17.05;51.12;99009.41;5043452;28;20481;-87
2022/04/29 10:33:55;;;;;;;10.50;5.20;;;16.70;84.90;;;17.09;50.23;99009.81;5045372;28;20469;-89
2022/04/29 10:36:26;;;;;;;7.13;5.00;;;16.70;83.70;;;17.15;50.39;99011.63;5045566;28;20449;-89
2022/04/29 10:39:02;;;;;;;11.83;5.27;;;16.70;83.80;;;17.24;50.74;99005.13;5056671;28;20994;-88
2022/04/29 10:41:33;;;;;;;10.60;5.37;;;16.80;84.00;;;17.27;49.30;98998.59;5041555;28;20459;-88
2022/04/29 10:44:07;;;;;;;5.43;3.93;;;16.80;82.90;;;17.31;49.75;98999.81;5040546;28;20511;-88
2022/04/29 10:46:37;;;;;;;7.60;4.27;;;16.80;83.40;;;17.35;49.48;98999.22;5042213;28;20449;-88
2022/04/29 10:49:30;;;;;;;6.17;4.40;;;16.80;83.20;;;17.36;48.43;98995.53;5042996;28;20476;-87
2022/04/29 10:52:02;;;;;;;10.70;4.13;;;16.90;82.10;;;17.40;48.97;98996.75;5051366;28;20559;-88
2022/04/29 10:54:48;;;;;;;6.10;3.50;;;16.90;82.80;;;17.42;47.24;98997.34;5044062;28;20555;-89
2022/04/29 10:57:19;;;;;;;5.60;3.80;;;17.00;80.60;;;17.43;45.98;98991.03;5044035;28;20853;-89
2022/04/29 10:59:54;;;;;;;5.80;3.93;;;17.00;79.40;;;17.46;46.35;98987.97;5048080;28;20442;-89
2022/04/29 11:02:27;;;;;;;4.53;3.47;;;17.10;80.20;;;17.46;46.61;98985.34;5045863;28;20453;-86
2022/04/29 11:05:00;;;;;;;6.03;3.57;;;17.10;80.10;;;17.52;46.44;98994.28;5046078;28;20430;-88
2022/04/29 11:07:43;;;;;;;6.43;3.47;;;17.10;80.20;;;17.50;45.48;98985.72;5047207;28;20467;-89
2022/04/29 11:10:17;;;;;;;5.00;3.10;;;17.10;79.50;;;17.50;45.04;98986.53;5051254;28;20488;-89
2022/04/29 11:13:00;;;;;;;4.37;3.50;;;17.10;78.20;;;17.53;45.91;98978.19;5051179;28;20483;-89
2022/04/29 11:15:45;;;;;;;6.60;3.80;;;17.10;79.50;;;17.56;45.77;98977.81;5050166;28;20503;-89
2022/04/29 11:18:19;;;;;;;8.03;3.23;;;17.10;79.50;;;17.58;45.67;98973.13;5047258;28;20493;-88
2022/04/29 11:20:57;;;;;;;9.60;3.87;;;17.10;79.50;;;17.55;45.39;98975.34;5045050;28;20555;-88
2022/04/29 11:26:17;;;;;;;6.83;4.00;;;17.20;79.90;;;17.67;46.49;98975.56;5044658;28;20457;-88
2022/04/29 11:28:54;;;;;;;5.30;3.27;;;17.20;80.30;;;17.75;45.18;98975.31;5047335;28;20477;-88
2022/04/29 11:31:23;;;;;;;3.83;2.87;;;17.30;79.10;;;17.83;45.79;98964.50;5050890;28;20444;-88
2022/04/29 11:34:06;;;;;;;9.33;3.60;;;17.30;79.90;;;17.88;45.44;98962.00;5045832;28;20536;-89
2022/04/29 11:36:38;;;;;;;6.20;3.20;;;17.50;79.50;;;17.97;46.62;98966.06;5048102;28;20437;-89
2022/04/29 11:39:16;;;;;;;6.47;3.53;;;17.50;80.50;;;18.03;45.67;98951.97;5045082;28;20461;-89
2022/04/29 11:41:54;;;;;;;4.70;3.40;;;17.60;79.60;;;18.08;45.65;98957.44;5043893;28;20514;-88
2022/04/29 11:44:35;;;;;;;5.43;3.53;;;17.70;79.30;;;18.10;46.14;98950.09;5048083;28;20459;-89
2022/04/29 11:47:05;;;;;;;9.90;3.70;;;17.60;80.10;;;18.13;46.09;98949.66;5050522;28;20477;-88
2022/04/29 11:49:35;;;;;;;3.90;3.50;;;17.70;80.20;;;18.18;46.73;98952.50;5047010;28;20946;-89
2022/04/29 11:52:22;;;;;;;4.10;3.23;;;17.70;81.10;;;18.22;47.01;98948.41;5048669;28;20463;-89
2022/04/29 11:54:55;;;;;;;4.60;3.37;;;17.80;81.60;;;18.28;47.67;98946.72;5047033;28;20978;-89
2022/04/29 11:57:28;;;;;;;4.67;3.00;;;17.70;82.40;;;18.28;47.12;98947.53;5047385;28;20511;-89
2022/04/29 12:00:00;;;;;;;3.60;3.10;;;17.60;80.80;;;18.31;47.29;98941.00;5041436;28;20544;-89
2022/04/29 12:02:30;;;;;;;4.83;3.50;;;17.70;82.00;;;18.34;46.56;98948.50;5042725;28;20462;-87
2022/04/29 12:05:02;;;;;;;4.10;2.73;;;17.80;81.00;;;18.38;46.61;98944.41;5043865;28;20459;-89
2022/04/29 12:07:41;;;;;;;4.60;3.47;;;17.90;81.00;;;18.38;46.20;98937.28;5042896;28;20453;-89
2022/04/29 12:10:18;;;;;;;5.27;3.67;;;17.90;80.20;;;18.40;45.36;98934.41;5041685;28;20496;-89